sensor_id;sensor_type;location;lat;lon;timestamp;pressure;altitude;pressure_sealevel;temperature;humidity
70302;BME280;57706;56.326;43.882;2023-04-21T00:00:51;100687.72;;;9.20;43.35
70302;BME280;57706;56.326;43.882;2023-04-21T00:03:17;100696.25;;;9.22;43.50
70302;BME280;57706;56.326;43.882;2023-04-21T00:05:45;100691.59;;;9.16;43.65
70302;BME280;57706;56.326;43.882;2023-04-21T00:08:13;100686.34;;;9.16;43.69
70302;BME280;57706;56.326;43.882;2023-04-21T00:10:39;100690.47;;;9.18;44.02
70302;BME280;57706;56.326;43.882;2023-04-21T00:13:05;100687.72;;;9.20;44.02
70302;BME280;57706;56.326;43.882;2023-04-21T00:15:31;100692.38;;;9.26;43.77
70302;BME280;57706;56.326;43.882;2023-04-21T00:17:57;100695.25;;;9.33;43.57
70302;BME280;57706;56.326;43.882;2023-04-21T00:20:24;100691.88;;;9.41;43.36
70302;BME280;57706;56.326;43.882;2023-04-21T00:22:55;100702.31;;;9.50;43.32
70302;BME280;57706;56.326;43.882;2023-04-21T00:25:22;100695.81;;;9.55;43.67
70302;BME280;57706;56.326;43.882;2023-04-21T00:27:48;100694.97;;;9.54;43.75
70302;BME280;57706;56.326;43.882;2023-04-21T00:30:13;100691.38;;;9.55;43.84
70302;BME280;57706;56.326;43.882;2023-04-21T00:32:39;100690.69;;;9.53;43.83
70302;BME280;57706;56.326;43.882;2023-04-21T00:35:06;100686.88;;;9.47;44.11
70302;BME280;57706;56.326;43.882;2023-04-21T00:37:32;100699.47;;;9.44;44.34
70302;BME280;57706;56.326;43.882;2023-04-21T00:39:58;100689.56;;;9.38;44.85
70302;BME280;57706;56.326;43.882;2023-04-21T00:42:24;100686.84;;;9.29;44.88
70302;BME280;57706;56.326;43.882;2023-04-21T00:44:50;100685.75;;;9.22;44.92
70302;BME280;57706;56.326;43.882;2023-04-21T00:47:21;100674.50;;;9.12;45.23
70302;BME280;57706;56.326;43.882;2023-04-21T00:49:49;100678.81;;;9.03;45.57
70302;BME280;57706;56.326;43.882;2023-04-21T00:52:16;100680.66;;;8.92;46.02
70302;BME280;57706;56.326;43.882;2023-04-21T00:54:42;100675.06;;;8.77;47.00
70302;BME280;57706;56.326;43.882;2023-04-21T00:57:10;100674.66;;;8.72;46.45
70302;BME280;57706;56.326;43.882;2023-04-21T00:59:36;100674.69;;;8.62;46.72
70302;BME280;57706;56.326;43.882;2023-04-21T01:02:02;100675.72;;;8.51;46.94
70302;BME280;57706;56.326;43.882;2023-04-21T01:04:29;100676.66;;;8.40;47.25
70302;BME280;57706;56.326;43.882;2023-04-21T01:07:03;100675.84;;;8.30;47.20
70302;BME280;57706;56.326;43.882;2023-04-21T01:09:29;100679.72;;;8.16;47.66
70302;BME280;57706;56.326;43.882;2023-04-21T01:12:06;100678.91;;;8.06;48.00
70302;BME280;57706;56.326;43.882;2023-04-21T01:14:34;100680.56;;;7.97;47.85
70302;BME280;57706;56.326;43.882;2023-04-21T01:17:03;100677.81;;;7.89;48.35
70302;BME280;57706;56.326;43.882;2023-04-21T01:19:37;100681.09;;;7.81;49.45
70302;BME280;57706;56.326;43.882;2023-04-21T01:22:07;100680.84;;;7.74;48.59
70302;BME280;57706;56.326;43.882;2023-04-21T01:24:44;100672.69;;;7.67;48.92
70302;BME280;57706;56.326;43.882;2023-04-21T01:27:13;100674.47;;;7.57;49.48
70302;BME280;57706;56.326;43.882;2023-04-21T01:29:41;100675.00;;;7.51;49.28
70302;BME280;57706;56.326;43.882;2023-04-21T01:32:19;100679.16;;;7.43;49.39
70302;BME280;57706;56.326;43.882;2023-04-21T01:34:47;100674.69;;;7.34;49.88
70302;BME280;57706;56.326;43.882;2023-04-21T01:37:15;100671.41;;;7.32;49.97
70302;BME280;57706;56.326;43.882;2023-04-21T01:39:44;100670.03;;;7.28;49.88
70302;BME280;57706;56.326;43.882;2023-04-21T01:42:12;100678.13;;;7.25;50.34
70302;BME280;57706;56.326;43.882;2023-04-21T01:44:38;100674.13;;;7.21;50.26
70302;BME280;57706;56.326;43.882;2023-04-21T01:47:05;100674.38;;;7.18;50.90
70302;BME280;57706;56.326;43.882;2023-04-21T01:49:31;100669.44;;;7.14;51.16
70302;BME280;57706;56.326;43.882;2023-04-21T01:51:58;100676.59;;;7.12;50.85
70302;BME280;57706;56.326;43.882;2023-04-21T01:54:24;100666.66;;;7.06;51.49
70302;BME280;57706;56.326;43.882;2023-04-21T01:56:51;100671.88;;;7.06;51.76
70302;BME280;57706;56.326;43.882;2023-04-21T01:59:17;100680.41;;;7.08;51.87
70302;BME280;57706;56.326;43.882;2023-04-21T02:01:43;100666.38;;;7.09;51.28
70302;BME280;57706;56.326;43.882;2023-04-21T02:04:09;100668.63;;;7.14;51.60
70302;BME280;57706;56.326;43.882;2023-04-21T02:06:35;100666.69;;;7.16;51.47
70302;BME280;57706;56.326;43.882;2023-04-21T02:09:01;100665.72;;;7.17;51.79
70302;BME280;57706;56.326;43.882;2023-04-21T02:11:29;100661.75;;;7.23;51.22
70302;BME280;57706;56.326;43.882;2023-04-21T02:13:56;100659.28;;;7.31;51.17
70302;BME280;57706;56.326;43.882;2023-04-21T02:16:23;100658.47;;;7.30;51.71
70302;BME280;57706;56.326;43.882;2023-04-21T02:18:53;100660.94;;;7.32;51.31
70302;BME280;57706;56.326;43.882;2023-04-21T02:21:22;100655.72;;;7.32;51.96
70302;BME280;57706;56.326;43.882;2023-04-21T02:23:49;100668.94;;;7.40;51.64
70302;BME280;57706;56.326;43.882;2023-04-21T02:26:16;100668.41;;;7.47;51.57
70302;BME280;57706;56.326;43.882;2023-04-21T02:28:42;100670.63;;;7.51;51.71
70302;BME280;57706;56.326;43.882;2023-04-21T02:31:08;100666.78;;;7.55;51.46
70302;BME280;57706;56.326;43.882;2023-04-21T02:33:34;100667.75;;;7.64;51.12
70302;BME280;57706;56.326;43.882;2023-04-21T02:36:01;100668.16;;;7.69;51.26
70302;BME280;57706;56.326;43.882;2023-04-21T02:38:27;100672.56;;;7.79;51.01
70302;BME280;57706;56.326;43.882;2023-04-21T02:40:53;100675.34;;;7.87;50.56
70302;BME280;57706;56.326;43.882;2023-04-21T02:43:19;100665.69;;;7.97;50.10
70302;BME280;57706;56.326;43.882;2023-04-21T02:45:45;100662.94;;;7.99;50.08
70302;BME280;57706;56.326;43.882;2023-04-21T02:48:12;100663.19;;;8.06;49.45
70302;BME280;57706;56.326;43.882;2023-04-21T02:50:38;100672.81;;;8.15;50.03
70302;BME280;57706;56.326;43.882;2023-04-21T02:53:05;100670.06;;;8.26;49.13
70302;BME280;57706;56.326;43.882;2023-04-21T02:55:32;100665.63;;;8.37;48.92
70302;BME280;57706;56.326;43.882;2023-04-21T02:57:58;100657.22;;;8.43;49.10
70302;BME280;57706;56.326;43.882;2023-04-21T03:00:24;100652.66;;;8.45;49.24
70302;BME280;57706;56.326;43.882;2023-04-21T03:02:51;100655.44;;;8.53;49.28
70302;BME280;57706;56.326;43.882;2023-04-21T03:05:18;100662.59;;;8.51;49.70
70302;BME280;57706;56.326;43.882;2023-04-21T03:07:44;100652.13;;;8.51;49.48
70302;BME280;57706;56.326;43.882;2023-04-21T03:10:11;100656.50;;;8.61;49.34
70302;BME280;57706;56.326;43.882;2023-04-21T03:12:38;100650.28;;;8.72;49.07
70302;BME280;57706;56.326;43.882;2023-04-21T03:15:05;100653.81;;;8.80;48.56
70302;BME280;57706;56.326;43.882;2023-04-21T03:17:33;100653.59;;;8.92;48.53
70302;BME280;57706;56.326;43.882;2023-04-21T03:20:00;100648.06;;;9.05;48.18
70302;BME280;57706;56.326;43.882;2023-04-21T03:22:25;100652.69;;;9.11;48.33
70302;BME280;57706;56.326;43.882;2023-04-21T03:24:51;100648.47;;;9.28;47.67
70302;BME280;57706;56.326;43.882;2023-04-21T03:27:17;100646.03;;;9.45;47.34
70302;BME280;57706;56.326;43.882;2023-04-21T03:29:43;100647.44;;;9.57;46.90
70302;BME280;57706;56.326;43.882;2023-04-21T03:32:09;100648.22;;;9.68;46.32
70302;BME280;57706;56.326;43.882;2023-04-21T03:34:35;100650.59;;;9.79;46.17
70302;BME280;57706;56.326;43.882;2023-04-21T03:37:03;100640.38;;;9.94;45.60
70302;BME280;57706;56.326;43.882;2023-04-21T03:39:29;100646.19;;;10.06;45.00
70302;BME280;57706;56.326;43.882;2023-04-21T03:41:55;100651.88;;;10.19;44.37
70302;BME280;57706;56.326;43.882;2023-04-21T03:44:25;100640.97;;;10.32;43.58
70302;BME280;57706;56.326;43.882;2023-04-21T03:46:52;100642.22;;;10.46;43.15
70302;BME280;57706;56.326;43.882;2023-04-21T03:49:21;100643.78;;;10.57;42.81
70302;BME280;57706;56.326;43.882;2023-04-21T03:51:47;100641.03;;;10.67;42.44
70302;BME280;57706;56.326;43.882;2023-04-21T03:54:13;100651.59;;;10.76;42.34
70302;BME280;57706;56.326;43.882;2023-04-21T03:56:39;100641.97;;;10.93;41.96
70302;BME280;57706;56.326;43.882;2023-04-21T03:59:05;100640.84;;;11.04;42.04
70302;BME280;57706;56.326;43.882;2023-04-21T04:01:32;100644.66;;;11.09;40.87
70302;BME280;57706;56.326;43.882;2023-04-21T04:03:58;100640.09;;;11.28;40.53
70302;BME280;57706;56.326;43.882;2023-04-21T04:06:24;100638.47;;;11.43;39.98
70302;BME280;57706;56.326;43.882;2023-04-21T04:08:51;100639.16;;;11.54;39.73
70302;BME280;57706;56.326;43.882;2023-04-21T04:11:16;100637.00;;;11.66;39.28
70302;BME280;57706;56.326;43.882;2023-04-21T04:13:43;100636.38;;;11.72;38.56
70302;BME280;57706;56.326;43.882;2023-04-21T04:16:09;100635.38;;;11.81;38.50
70302;BME280;57706;56.326;43.882;2023-04-21T04:18:34;100635.06;;;11.93;37.98
70302;BME280;57706;56.326;43.882;2023-04-21T04:21:07;100638.03;;;12.06;36.31
70302;BME280;57706;56.326;43.882;2023-04-21T04:23:33;100635.06;;;12.18;36.45
70302;BME280;57706;56.326;43.882;2023-04-21T04:25:59;100632.75;;;12.23;36.31
70302;BME280;57706;56.326;43.882;2023-04-21T04:28:26;100630.78;;;12.33;36.24
70302;BME280;57706;56.326;43.882;2023-04-21T04:30:53;100627.13;;;12.43;36.44
70302;BME280;57706;56.326;43.882;2023-04-21T04:33:20;100617.56;;;12.50;36.31
70302;BME280;57706;56.326;43.882;2023-04-21T04:35:46;100621.09;;;12.65;35.81
70302;BME280;57706;56.326;43.882;2023-04-21T04:38:12;100617.09;;;12.78;36.01
70302;BME280;57706;56.326;43.882;2023-04-21T04:40:40;100619.72;;;12.86;35.58
70302;BME280;57706;56.326;43.882;2023-04-21T04:43:07;100619.06;;;12.84;34.78
70302;BME280;57706;56.326;43.882;2023-04-21T04:45:36;100612.06;;;13.00;35.10
70302;BME280;57706;56.326;43.882;2023-04-21T04:48:03;100616.91;;;13.19;35.06
70302;BME280;57706;56.326;43.882;2023-04-21T04:50:29;100612.22;;;13.30;34.58
70302;BME280;57706;56.326;43.882;2023-04-21T04:52:55;100617.09;;;13.41;34.72
70302;BME280;57706;56.326;43.882;2023-04-21T04:55:22;100612.75;;;13.48;34.37
70302;BME280;57706;56.326;43.882;2023-04-21T04:57:48;100612.25;;;13.53;34.56
70302;BME280;57706;56.326;43.882;2023-04-21T05:00:14;100604.38;;;13.68;34.46
70302;BME280;57706;56.326;43.882;2023-04-21T05:02:40;100602.88;;;13.89;34.25
70302;BME280;57706;56.326;43.882;2023-04-21T05:05:06;100604.72;;;14.18;33.38
70302;BME280;57706;56.326;43.882;2023-04-21T05:07:33;100601.28;;;14.48;33.40
70302;BME280;57706;56.326;43.882;2023-04-21T05:09:59;100605.50;;;14.57;33.31
70302;BME280;57706;56.326;43.882;2023-04-21T05:12:25;100597.38;;;14.44;32.71
70302;BME280;57706;56.326;43.882;2023-04-21T05:14:51;100592.38;;;14.49;32.96
70302;BME280;57706;56.326;43.882;2023-04-21T05:17:17;100593.53;;;14.62;32.90
70302;BME280;57706;56.326;43.882;2023-04-21T05:19:43;100592.41;;;14.71;32.58
70302;BME280;57706;56.326;43.882;2023-04-21T05:22:09;100595.88;;;14.86;32.04
70302;BME280;57706;56.326;43.882;2023-04-21T05:24:35;100598.34;;;15.25;31.14
70302;BME280;57706;56.326;43.882;2023-04-21T05:27:01;100597.94;;;15.72;30.83
70302;BME280;57706;56.326;43.882;2023-04-21T05:29:29;100593.41;;;16.22;30.22
70302;BME280;57706;56.326;43.882;2023-04-21T05:31:55;100583.06;;;16.70;29.75
70302;BME280;57706;56.326;43.882;2023-04-21T05:34:21;100581.78;;;17.21;29.25
70302;BME280;57706;56.326;43.882;2023-04-21T05:36:47;100580.38;;;17.52;28.34
70302;BME280;57706;56.326;43.882;2023-04-21T05:39:13;100583.84;;;17.39;27.75
70302;BME280;57706;56.326;43.882;2023-04-21T05:41:41;100582.31;;;16.96;28.91
70302;BME280;57706;56.326;43.882;2023-04-21T05:44:06;100577.25;;;16.46;29.40
70302;BME280;57706;56.326;43.882;2023-04-21T05:46:32;100579.94;;;16.17;29.65
70302;BME280;57706;56.326;43.882;2023-04-21T05:49:00;100573.72;;;16.32;29.75
70302;BME280;57706;56.326;43.882;2023-04-21T05:51:27;100571.47;;;16.35;29.23
70302;BME280;57706;56.326;43.882;2023-04-21T05:53:52;100571.50;;;16.42;29.10
70302;BME280;57706;56.326;43.882;2023-04-21T05:56:18;100572.75;;;16.46;29.77
70302;BME280;57706;56.326;43.882;2023-04-21T05:58:44;100577.88;;;16.55;29.57
70302;BME280;57706;56.326;43.882;2023-04-21T06:01:11;100575.47;;;16.60;28.93
70302;BME280;57706;56.326;43.882;2023-04-21T06:03:37;100574.63;;;16.59;28.70
70302;BME280;57706;56.326;43.882;2023-04-21T06:06:04;100574.94;;;16.91;28.66
70302;BME280;57706;56.326;43.882;2023-04-21T06:08:31;100568.34;;;17.36;26.45
70302;BME280;57706;56.326;43.882;2023-04-21T06:10:57;100572.78;;;18.03;26.51
70302;BME280;57706;56.326;43.882;2023-04-21T06:13:23;100566.94;;;18.92;25.89
70302;BME280;57706;56.326;43.882;2023-04-21T06:15:49;100570.78;;;19.61;24.46
70302;BME280;57706;56.326;43.882;2023-04-21T06:18:15;100563.44;;;21.06;22.90
70302;BME280;57706;56.326;43.882;2023-04-21T06:20:41;100562.09;;;25.98;18.06
70302;BME280;57706;56.326;43.882;2023-04-21T06:23:07;100555.22;;;30.32;13.85
70302;BME280;57706;56.326;43.882;2023-04-21T06:25:34;100544.09;;;31.06;13.45
70302;BME280;57706;56.326;43.882;2023-04-21T06:28:00;100551.97;;;35.11;11.31
70302;BME280;57706;56.326;43.882;2023-04-21T06:30:27;100539.78;;;36.08;10.87
70302;BME280;57706;56.326;43.882;2023-04-21T06:32:52;100546.78;;;37.07;9.84
70302;BME280;57706;56.326;43.882;2023-04-21T06:35:18;100532.88;;;39.33;8.61
70302;BME280;57706;56.326;43.882;2023-04-21T06:37:45;100532.84;;;41.34;7.31
70302;BME280;57706;56.326;43.882;2023-04-21T06:40:11;100530.53;;;41.93;7.08
70302;BME280;57706;56.326;43.882;2023-04-21T06:42:41;100518.03;;;42.75;6.65
70302;BME280;57706;56.326;43.882;2023-04-21T06:45:08;100519.91;;;43.13;5.83
70302;BME280;57706;56.326;43.882;2023-04-21T06:47:34;100512.09;;;43.93;5.73
70302;BME280;57706;56.326;43.882;2023-04-21T06:49:59;100501.59;;;44.86;5.56
70302;BME280;57706;56.326;43.882;2023-04-21T06:52:25;100503.72;;;45.92;4.91
70302;BME280;57706;56.326;43.882;2023-04-21T06:54:51;100499.94;;;44.23;5.53
70302;BME280;57706;56.326;43.882;2023-04-21T06:57:17;100493.59;;;45.42;5.01
70302;BME280;57706;56.326;43.882;2023-04-21T06:59:43;100496.06;;;46.68;4.79
70302;BME280;57706;56.326;43.882;2023-04-21T07:02:09;100494.84;;;46.16;4.53
70302;BME280;57706;56.326;43.882;2023-04-21T07:04:34;100494.72;;;46.38;3.81
70302;BME280;57706;56.326;43.882;2023-04-21T07:07:00;100491.25;;;47.18;3.81
70302;BME280;57706;56.326;43.882;2023-04-21T07:09:26;100488.78;;;48.20;3.44
70302;BME280;57706;56.326;43.882;2023-04-21T07:11:55;100473.88;;;49.02;2.96
70302;BME280;57706;56.326;43.882;2023-04-21T07:14:21;100475.34;;;48.39;3.19
70302;BME280;57706;56.326;43.882;2023-04-21T07:16:47;100486.13;;;48.61;2.97
70302;BME280;57706;56.326;43.882;2023-04-21T07:19:13;100473.50;;;49.98;2.45
70302;BME280;57706;56.326;43.882;2023-04-21T07:21:38;100475.34;;;49.68;2.44
70302;BME280;57706;56.326;43.882;2023-04-21T07:24:04;100468.63;;;49.28;2.37
70302;BME280;57706;56.326;43.882;2023-04-21T07:26:30;100473.50;;;49.21;2.76
70302;BME280;57706;56.326;43.882;2023-04-21T07:28:57;100472.44;;;49.92;2.56
70302;BME280;57706;56.326;43.882;2023-04-21T07:31:23;100466.41;;;49.56;2.66
70302;BME280;57706;56.326;43.882;2023-04-21T07:33:50;100454.34;;;49.63;2.60
70302;BME280;57706;56.326;43.882;2023-04-21T07:36:16;100460.66;;;49.47;2.64
70302;BME280;57706;56.326;43.882;2023-04-21T07:38:42;100455.06;;;49.84;2.51
70302;BME280;57706;56.326;43.882;2023-04-21T07:41:12;100451.19;;;51.07;2.03
70302;BME280;57706;56.326;43.882;2023-04-21T07:43:39;100460.13;;;50.55;2.75
70302;BME280;57706;56.326;43.882;2023-04-21T07:46:05;100457.69;;;50.58;2.58
70302;BME280;57706;56.326;43.882;2023-04-21T07:48:32;100444.03;;;47.80;3.06
70302;BME280;57706;56.326;43.882;2023-04-21T07:50:57;100453.44;;;45.72;3.89
70302;BME280;57706;56.326;43.882;2023-04-21T07:53:25;100458.91;;;40.85;5.84
70302;BME280;57706;56.326;43.882;2023-04-21T07:55:52;100452.34;;;45.51;4.24
70302;BME280;57706;56.326;43.882;2023-04-21T07:58:19;100445.78;;;44.76;4.41
70302;BME280;57706;56.326;43.882;2023-04-21T08:00:45;100441.72;;;38.95;6.29
70302;BME280;57706;56.326;43.882;2023-04-21T08:03:11;100452.09;;;43.30;4.71
70302;BME280;57706;56.326;43.882;2023-04-21T08:05:37;100444.50;;;47.09;3.07
70302;BME280;57706;56.326;43.882;2023-04-21T08:08:03;100449.63;;;49.40;2.26
70302;BME280;57706;56.326;43.882;2023-04-21T08:10:28;100442.28;;;51.12;1.56
70302;BME280;57706;56.326;43.882;2023-04-21T08:12:54;100449.41;;;52.56;1.17
70302;BME280;57706;56.326;43.882;2023-04-21T08:15:20;100438.69;;;51.12;1.79
70302;BME280;57706;56.326;43.882;2023-04-21T08:17:46;100434.13;;;48.03;2.82
70302;BME280;57706;56.326;43.882;2023-04-21T08:20:12;100431.59;;;42.30;4.34
70302;BME280;57706;56.326;43.882;2023-04-21T08:22:38;100439.25;;;46.30;3.50
70302;BME280;57706;56.326;43.882;2023-04-21T08:25:04;100425.75;;;46.29;2.87
70302;BME280;57706;56.326;43.882;2023-04-21T08:27:32;100423.41;;;48.53;2.54
70302;BME280;57706;56.326;43.882;2023-04-21T08:29:58;100417.97;;;49.67;2.27
70302;BME280;57706;56.326;43.882;2023-04-21T08:32:25;100417.66;;;50.31;1.91
70302;BME280;57706;56.326;43.882;2023-04-21T08:34:53;100414.13;;;51.45;1.46
70302;BME280;57706;56.326;43.882;2023-04-21T08:37:19;100400.56;;;51.83;1.42
70302;BME280;57706;56.326;43.882;2023-04-21T08:39:47;100398.09;;;47.02;2.81
70302;BME280;57706;56.326;43.882;2023-04-21T08:42:16;100392.53;;;42.24;4.51
70302;BME280;57706;56.326;43.882;2023-04-21T08:44:43;100394.03;;;37.53;6.56
70302;BME280;57706;56.326;43.882;2023-04-21T08:47:10;100399.47;;;34.92;7.67
70302;BME280;57706;56.326;43.882;2023-04-21T08:49:37;100400.09;;;32.63;8.33
70302;BME280;57706;56.326;43.882;2023-04-21T08:52:04;100400.28;;;30.77;9.76
70302;BME280;57706;56.326;43.882;2023-04-21T08:54:31;100401.50;;;29.12;10.81
70302;BME280;57706;56.326;43.882;2023-04-21T08:56:57;100400.38;;;27.80;11.67
70302;BME280;57706;56.326;43.882;2023-04-21T08:59:23;100402.13;;;30.63;10.02
70302;BME280;57706;56.326;43.882;2023-04-21T09:02:09;100399.66;;;38.75;6.23
70302;BME280;57706;56.326;43.882;2023-04-21T09:04:39;100389.50;;;42.89;4.27
70302;BME280;57706;56.326;43.882;2023-04-21T09:07:05;100389.13;;;44.95;3.50
70302;BME280;57706;56.326;43.882;2023-04-21T09:09:50;100387.72;;;47.06;2.74
70302;BME280;57706;56.326;43.882;2023-04-21T09:12:17;100378.75;;;48.76;2.44
70302;BME280;57706;56.326;43.882;2023-04-21T09:14:43;100375.44;;;49.63;2.09
70302;BME280;57706;56.326;43.882;2023-04-21T09:17:09;100383.06;;;50.41;2.02
70302;BME280;57706;56.326;43.882;2023-04-21T09:19:35;100367.94;;;50.98;1.49
70302;BME280;57706;56.326;43.882;2023-04-21T09:22:01;100369.78;;;51.05;1.44
70302;BME280;57706;56.326;43.882;2023-04-21T09:24:27;100352.88;;;51.21;1.40
70302;BME280;57706;56.326;43.882;2023-04-21T09:26:53;100360.00;;;50.54;1.56
70302;BME280;57706;56.326;43.882;2023-04-21T09:29:23;100359.28;;;50.50;1.77
70302;BME280;57706;56.326;43.882;2023-04-21T09:31:50;100348.38;;;51.89;1.35
70302;BME280;57706;56.326;43.882;2023-04-21T09:34:23;100350.31;;;51.40;1.16
70302;BME280;57706;56.326;43.882;2023-04-21T09:37:02;100346.44;;;49.56;1.70
70302;BME280;57706;56.326;43.882;2023-04-21T09:39:30;100343.22;;;46.33;2.65
70302;BME280;57706;56.326;43.882;2023-04-21T09:41:57;100343.63;;;41.14;4.30
70302;BME280;57706;56.326;43.882;2023-04-21T09:44:27;100352.59;;;36.76;5.73
70302;BME280;57706;56.326;43.882;2023-04-21T09:46:59;100358.66;;;37.48;6.12
70302;BME280;57706;56.326;43.882;2023-04-21T09:49:28;100345.63;;;37.29;5.87
70302;BME280;57706;56.326;43.882;2023-04-21T09:51:56;100344.09;;;34.92;6.83
70302;BME280;57706;56.326;43.882;2023-04-21T09:54:29;100354.03;;;36.03;6.75
70302;BME280;57706;56.326;43.882;2023-04-21T09:57:01;100352.84;;;33.58;7.52
70302;BME280;57706;56.326;43.882;2023-04-21T09:59:34;100355.66;;;31.91;8.48
70302;BME280;57706;56.326;43.882;2023-04-21T10:02:04;100361.72;;;31.88;8.35
70302;BME280;57706;56.326;43.882;2023-04-21T10:04:30;100357.69;;;35.52;6.82
70302;BME280;57706;56.326;43.882;2023-04-21T10:07:01;100354.63;;;36.42;6.48
70302;BME280;57706;56.326;43.882;2023-04-21T10:09:36;100344.69;;;40.29;4.80
70302;BME280;57706;56.326;43.882;2023-04-21T10:12:04;100332.97;;;42.75;3.90
70302;BME280;57706;56.326;43.882;2023-04-21T10:14:30;100330.28;;;44.44;3.42
70302;BME280;57706;56.326;43.882;2023-04-21T10:16:58;100333.88;;;46.09;2.70
70302;BME280;57706;56.326;43.882;2023-04-21T10:19:28;100325.75;;;45.12;2.96
70302;BME280;57706;56.326;43.882;2023-04-21T10:21:56;100327.78;;;45.75;2.73
70302;BME280;57706;56.326;43.882;2023-04-21T10:24:22;100319.81;;;45.81;2.65
70302;BME280;57706;56.326;43.882;2023-04-21T10:26:49;100323.19;;;47.50;2.38
70302;BME280;57706;56.326;43.882;2023-04-21T10:29:27;100313.44;;;48.37;2.24
70302;BME280;57706;56.326;43.882;2023-04-21T10:31:54;100303.63;;;46.95;2.33
70302;BME280;57706;56.326;43.882;2023-04-21T10:39:29;100300.28;;;45.39;3.28
70302;BME280;57706;56.326;43.882;2023-04-21T10:42:27;100294.22;;;46.89;2.74
70302;BME280;57706;56.326;43.882;2023-04-21T10:47:27;100292.28;;;42.65;4.09
70302;BME280;57706;56.326;43.882;2023-04-21T10:49:57;100287.09;;;44.54;3.08
70302;BME280;57706;56.326;43.882;2023-04-21T10:52:32;100279.38;;;46.68;3.03
70302;BME280;57706;56.326;43.882;2023-04-21T10:57:24;100282.78;;;47.93;2.25
70302;BME280;57706;56.326;43.882;2023-04-21T10:59:50;100281.72;;;47.32;2.69
70302;BME280;57706;56.326;43.882;2023-04-21T11:02:17;100274.38;;;47.73;2.56
70302;BME280;57706;56.326;43.882;2023-04-21T11:04:44;100268.72;;;48.24;2.32
70302;BME280;57706;56.326;43.882;2023-04-21T11:07:14;100274.28;;;48.44;2.27
70302;BME280;57706;56.326;43.882;2023-04-21T11:09:42;100266.59;;;48.72;2.25
70302;BME280;57706;56.326;43.882;2023-04-21T11:12:10;100268.84;;;48.77;2.08
70302;BME280;57706;56.326;43.882;2023-04-21T11:14:39;100259.56;;;49.04;2.02
70302;BME280;57706;56.326;43.882;2023-04-21T11:17:15;100257.44;;;48.52;1.76
70302;BME280;57706;56.326;43.882;2023-04-21T11:19:45;100255.59;;;48.65;1.81
70302;BME280;57706;56.326;43.882;2023-04-21T11:22:11;100253.56;;;44.34;2.99
70302;BME280;57706;56.326;43.882;2023-04-21T11:24:37;100264.19;;;44.53;3.14
70302;BME280;57706;56.326;43.882;2023-04-21T11:27:07;100265.56;;;46.92;2.68
70302;BME280;57706;56.326;43.882;2023-04-21T11:29:33;100251.13;;;47.59;2.26
70302;BME280;57706;56.326;43.882;2023-04-21T11:31:58;100245.94;;;48.29;2.14
70302;BME280;57706;56.326;43.882;2023-04-21T11:34:25;100250.63;;;48.73;2.03
70302;BME280;57706;56.326;43.882;2023-04-21T11:36:51;100248.19;;;47.15;2.35
70302;BME280;57706;56.326;43.882;2023-04-21T11:39:17;100242.78;;;44.65;3.50
70302;BME280;57706;56.326;43.882;2023-04-21T11:41:48;100241.91;;;46.45;3.06
70302;BME280;57706;56.326;43.882;2023-04-21T11:44:35;100243.16;;;47.34;2.21
70302;BME280;57706;56.326;43.882;2023-04-21T11:47:18;100231.97;;;48.09;2.05
70302;BME280;57706;56.326;43.882;2023-04-21T11:52:18;100229.97;;;46.48;2.51
70302;BME280;57706;56.326;43.882;2023-04-21T11:54:45;100228.16;;;47.55;2.28
70302;BME280;57706;56.326;43.882;2023-04-21T11:57:10;100228.16;;;46.34;2.66
70302;BME280;57706;56.326;43.882;2023-04-21T11:59:37;100224.81;;;47.12;2.27
70302;BME280;57706;56.326;43.882;2023-04-21T12:02:03;100219.56;;;47.46;2.05
70302;BME280;57706;56.326;43.882;2023-04-21T12:04:28;100215.16;;;45.85;2.08
70302;BME280;57706;56.326;43.882;2023-04-21T12:07:00;100218.63;;;46.35;2.42
70302;BME280;57706;56.326;43.882;2023-04-21T12:09:28;100216.09;;;46.48;2.26
70302;BME280;57706;56.326;43.882;2023-04-21T12:11:55;100209.34;;;46.49;2.29
70302;BME280;57706;56.326;43.882;2023-04-21T12:14:23;100209.38;;;46.45;2.27
70302;BME280;57706;56.326;43.882;2023-04-21T12:16:52;100205.97;;;45.92;2.34
70302;BME280;57706;56.326;43.882;2023-04-21T12:19:37;100209.66;;;45.25;2.60
70302;BME280;57706;56.326;43.882;2023-04-21T12:22:11;100214.06;;;45.15;2.89
70302;BME280;57706;56.326;43.882;2023-04-21T12:24:37;100206.41;;;45.87;2.60
70302;BME280;57706;56.326;43.882;2023-04-21T12:27:04;100196.25;;;45.69;2.49
70302;BME280;57706;56.326;43.882;2023-04-21T12:29:31;100198.22;;;44.08;3.04
70302;BME280;57706;56.326;43.882;2023-04-21T12:31:59;100192.66;;;44.30;2.81
70302;BME280;57706;56.326;43.882;2023-04-21T12:34:25;100192.25;;;44.35;2.65
70302;BME280;57706;56.326;43.882;2023-04-21T12:36:51;100197.00;;;44.38;2.92
70302;BME280;57706;56.326;43.882;2023-04-21T12:39:17;100197.25;;;44.69;2.83
70302;BME280;57706;56.326;43.882;2023-04-21T12:41:44;100187.38;;;44.68;2.52
70302;BME280;57706;56.326;43.882;2023-04-21T12:44:12;100180.97;;;44.82;2.71
70302;BME280;57706;56.326;43.882;2023-04-21T12:46:38;100179.50;;;44.63;2.67
70302;BME280;57706;56.326;43.882;2023-04-21T12:49:05;100176.44;;;44.32;2.74
70302;BME280;57706;56.326;43.882;2023-04-21T12:51:32;100175.47;;;42.57;3.43
70302;BME280;57706;56.326;43.882;2023-04-21T12:53:58;100177.31;;;43.49;3.02
70302;BME280;57706;56.326;43.882;2023-04-21T12:56:24;100174.94;;;43.73;3.16
70302;BME280;57706;56.326;43.882;2023-04-21T12:58:50;100174.94;;;43.73;3.20
70302;BME280;57706;56.326;43.882;2023-04-21T13:01:16;100174.97;;;43.84;3.23